Saint Robert, MO

5:51 AM CDT on October 31, 2014 (GMT -0500)
Waynesville Regional At Forney Field | Change Station
CLOSE
Current Station
Airport
Location: Fort Leonard Wood,
Elevation: 1158 ft
Nearby Weather Stations
Active Advisory: Freeze Warning

Elev 1158 ft 37.74 °N, 92.14 °W | Updated 53 minutes ago

Mostly Cloudy
Mostly Cloudy
45 °F
Feels Like 40 °F
N
8
Wind Variable Wind from NNW

Today
High -- | Low -- °F
--% Chance of Precip.
Yesterday
High -- | Low -- °F
Precip. -- in
7:33 AM 6:11 PM
First Quarter, 54% visible
Pressure 30.16 in
Visibility 10.0 miles
Clouds Mostly Cloudy 5500 ft
Mostly Cloudy 7000 ft
Windchill 40 °F
Dew Point 44 °F
Humidity 97%
Rainfall 0.00 in
Snow Depth Not available.
UV 0 out of 12
Pollen 1.80 out of 12
Air Quality Not available.
Flu Activity Not available.
METAR KTBN 310958Z AUTO 34007KT 10SM BKN055 BKN070 07/07 A3015 RMK AO2 SLP213 T00710067

More Conditions Fewer Conditions

Pressure 30.16 in
Visibility 10.0 miles
Clouds Mostly Cloudy 5500 ft
Mostly Cloudy 7000 ft
Windchill 40 °F
Dew Point 44 °F
Humidity 97%
Rainfall 0.00 in
Snow Depth Not available.
UV 0 out of 12
Pollen 1.80 out of 12
Air Quality Not available.
Flu Activity Not available.
METAR KTBN 310958Z AUTO 34007KT 10SM BKN055 BKN070 07/07 A3015 RMK AO2 SLP213 T00710067

More Conditions Fewer Conditions

10-Day Weather Forecast

Almanac

Astronomy

Oct. 31, 2014 Rise Set
Actual Time
Civil Twilight
Nautical Twilight
Astronomical Twilight
Moon
Length of Visible Light
Length of Day
Tomorrow will be .
, % of the Moon is Illuminated

Today's Extremes

State Highs State Lows

Community

WunderPhotos

Upload Photos

1,766,580 photos uploaded!

WunderBlogs® & News

Nearby

Air Quality

  Air Quality AQ Index Pollutant
Not available.

Snow Depth

Station Depth Elevation

Earthquake Activity

City Distance Mag. Time & Date
Minimum magnitude displayed is 2.5.

Coastal Water Temperatures

Place Temperature

Nearby Weather Stations